METAR Data
IDs: Format: Raw Decoded Include TAF

Data at: 1514 UTC 25 Jan 2020

METAR for:KMIW (Marshalltown Muni, IA, US)
Text:KMIW 251453Z AUTO 29014KT 6SM BR OVC009 M02/M03 A2998 RMK AO2 SLP163 T10221028 51012 $
Temperature: -2.2°C ( 28°F)
Dewpoint: -2.8°C ( 27°F) [RH = 96%]
Pressure (altimeter):29.98 inches Hg (1015.3 mb) [Sea level pressure: 1016.3 mb]
Winds:from the WNW (290 degrees) at 16 MPH (14 knots; 7.2 m/s)
Visibility: 6 sm ( 10 km)
Ceiling:900 feet AGL
Clouds: overcast cloud deck at 900 feet AGL
Weather:BR (mist)
QC Flag:automated observation with no human augmentation; SOME DATA ABOVE MAY BE INACCURATE!!!"$" is an indication the sensor requires maintenance.